Terminal Aerodrome Forecast
Issued by NWS

Home | Current Version | Previous Version | Text Only | Print | Product List | Glossary On
Versions: 1 2 3 4 5 6 7 8 9 10 11 12 13 14 15 16
000
FTUS45 KRIW 271100
TAFLND
TAF
KLND 271125Z 2712/2812 VRB06KT P6SM SCT140 BKN200 WS020/26035KT=

USA.gov is the U.S. government's official web portal to all federal, state and local government web resources and services.